Mancos, CO

1:26 AM MDT on September 23, 2014 (GMT -0600)
Four Corners Regional | Change Station
CLOSE
Current Station
Airport
Location: Farmington,
Elevation: 5502 ft
Nearby Weather Stations

Elev 5502 ft 36.74 °N, 108.23 °W | Updated 33 minutes ago

Clear
Clear
57 °F
Feels Like 57 °F
N
6
Wind Variable Wind from NNE

Today
High -- | Low -- °F
--% Chance of Precip.
Yesterday
High -- | Low -- °F
Precip. -- in
7:02 AM 7:08 PM
Waning Crescent, 1% visible
Pressure 30.07 in
Visibility 10.0 miles
Clouds Clear
Dew Point 45 °F
Humidity 64%
Rainfall 0.00 in
Snow Depth Not available.
UV 0 out of 12
Pollen 4.30 out of 12
Air Quality Not available.
Flu Activity Not available.
METAR KFMN 230653Z AUTO 02005KT 10SM CLR 14/07 A3022 RMK AO2 SLP183 T01390072 402720139

More Conditions Fewer Conditions

Pressure 30.07 in
Visibility 10.0 miles
Clouds Clear
Dew Point 45 °F
Humidity 64%
Rainfall 0.00 in
Snow Depth Not available.
UV 0 out of 12
Pollen 4.30 out of 12
Air Quality Not available.
Flu Activity Not available.
METAR KFMN 230653Z AUTO 02005KT 10SM CLR 14/07 A3022 RMK AO2 SLP183 T01390072 402720139

More Conditions Fewer Conditions

10-Day Weather Forecast

Almanac

Astronomy

Sep. 23, 2014 Rise Set
Actual Time 7:02 AM MDT 7:08 PM MDT
Civil Twilight 6:36 AM MDT 7:34 PM MDT
Nautical Twilight 6:05 AM MDT 8:05 PM MDT
Astronomical Twilight 5:34 AM MDT 8:35 PM MDT
Moon 6:29 AM MDT 6:49 PM MDT
Length of Visible Light 12h 58m
Length of Day
12h 06m
Tomorrow will be 2m 22s shorter.
Waning Crescent, 1% of the Moon is Illuminated
Today
Waning Crescent
Sep 24
New
Oct 1
First Quarter
Oct 8
Full
Oct 15
Last Quarter

Today's Extremes

State Highs State Lows

Community

WunderPhotos

Upload Photos

1,755,608 photos uploaded!

Nearby

Snow Depth

Station Depth Elevation
Willow Park 0 in 10700 ft
Bear RIver 0 in 9080 ft
Slumgullion 1 in 11440 ft
North Lost Trail 0 in 9200 ft
Beaver Divide 0 in 8280 ft

Earthquake Activity

City Distance Mag. Time & Date
No recent earthquake activity has been reported nearby.
Minimum magnitude displayed is 2.5.

Coastal Water Temperatures

Place Temperature
No Stations Reporting

Nearby Weather Stations